map of ILQ home
ILQ - Airport
Location
City:  Ilo, Moquegua, Perú
Name:Ilo Airport
ICAO:SPLO
IATA:ILQ

Details
Type:Airport (Aerodrome, Airfield)
Use:Public/Civil
Latitude:17°41'42"S (-17.695027)
Longitude:71°20'38"W (-71.343930)
Elevation:72 ft (22 m)
Variation:5.02°W (WMM2015 magnetic declination)
-0.19° annual change
Runways:1
Longest:8202 × 148 ft (2500 × 45 m), paved

Time
Time Zone:UTC-5
Local Time:

Weather
METAR:SPLO 171600Z /////KT CAVOK 25/20 Q1013 RMK PP000
TAF:SPLO 171120Z 1712/1812 14005KT 8000 BKN030 TX22/1719Z TN18/1810Z
FM171600 18008KT 9999 FEW030
FM180000 14006KT 9999 BKN030

Related Locations
Nearby:
Farthest:SYX: 12373 mi / 19913 km
Sanya [Fenghuang Intl (Phoenix Intl)], 46, CN

Find:

   beyond  
but within

Other Information
Maps:
NOTAMs:
Links:
Sources:

  
  • flag of Perú
  • flag of Moquegua
  

Sectional Chart

Flight Planning
at skyvector.com

Satellite Image

Google Maps Satellite view

 

Copyright © 2004-2018 Karl L. Swartz. All rights reserved.
The Great Circle Mapper name and logo are trademarks of the Great Circle Mapper.
All other trademarks mentioned herein belong to their respective owners.
Please see credits for attibutions and further copyright information.

  Follow gcmap on Facebook Follow gcmap on Twitter Follow gcmap on Google+ GCmap on LinkedIn

hCard Microformat

Geo Microformat